sensor_id;sensor_type;location;lat;lon;timestamp;pressure;altitude;pressure_sealevel;temperature;humidity
10718;BME280;13513;42.700;23.124;2023-04-10T00:01:35;93011.98;;;5.30;100.00
10718;BME280;13513;42.700;23.124;2023-04-10T00:04:06;93007.80;;;5.32;100.00
10718;BME280;13513;42.700;23.124;2023-04-10T00:06:37;93005.59;;;5.35;100.00
10718;BME280;13513;42.700;23.124;2023-04-10T00:09:08;93004.06;;;5.21;100.00
10718;BME280;13513;42.700;23.124;2023-04-10T00:11:39;93001.70;;;5.29;100.00
10718;BME280;13513;42.700;23.124;2023-04-10T00:14:10;93001.36;;;5.19;100.00
10718;BME280;13513;42.700;23.124;2023-04-10T00:16:41;93006.73;;;5.30;100.00
10718;BME280;13513;42.700;23.124;2023-04-10T00:19:12;93000.19;;;5.30;100.00
10718;BME280;13513;42.700;23.124;2023-04-10T00:21:43;92996.00;;;5.38;100.00
10718;BME280;13513;42.700;23.124;2023-04-10T00:24:14;92989.27;;;5.33;100.00
10718;BME280;13513;42.700;23.124;2023-04-10T00:26:46;92993.27;;;5.36;100.00
10718;BME280;13513;42.700;23.124;2023-04-10T00:29:17;92993.27;;;5.36;100.00
10718;BME280;13513;42.700;23.124;2023-04-10T00:31:48;92989.75;;;5.48;100.00
10718;BME280;13513;42.700;23.124;2023-04-10T00:34:18;92986.37;;;5.57;100.00
10718;BME280;13513;42.700;23.124;2023-04-10T00:36:49;92985.14;;;5.68;100.00
10718;BME280;13513;42.700;23.124;2023-04-10T00:39:19;92985.14;;;5.68;100.00
10718;BME280;13513;42.700;23.124;2023-04-10T00:41:50;92986.16;;;5.58;100.00
10718;BME280;13513;42.700;23.124;2023-04-10T00:44:20;92986.59;;;5.64;100.00
10718;BME280;13513;42.700;23.124;2023-04-10T00:46:51;92976.98;;;5.58;100.00
10718;BME280;13513;42.700;23.124;2023-04-10T00:49:22;92981.95;;;5.66;100.00
10718;BME280;13513;42.700;23.124;2023-04-10T00:51:53;92972.23;;;5.58;100.00
10718;BME280;13513;42.700;23.124;2023-04-10T00:54:25;92970.01;;;5.61;100.00
10718;BME280;13513;42.700;23.124;2023-04-10T00:56:57;92971.81;;;5.61;100.00
10718;BME280;13513;42.700;23.124;2023-04-10T00:59:27;92966.92;;;5.55;100.00
10718;BME280;13513;42.700;23.124;2023-04-10T01:01:59;92971.14;;;5.56;100.00
10718;BME280;13513;42.700;23.124;2023-04-10T01:04:30;92969.20;;;5.61;100.00
10718;BME280;13513;42.700;23.124;2023-04-10T01:15:14;92966.41;;;5.80;100.00
10718;BME280;13513;42.700;23.124;2023-04-10T01:18:03;92967.97;;;5.88;100.00
10718;BME280;13513;42.700;23.124;2023-04-10T01:20:38;92969.56;;;5.89;100.00
10718;BME280;13513;42.700;23.124;2023-04-10T01:25:45;92972.50;;;5.74;100.00
10718;BME280;13513;42.700;23.124;2023-04-10T01:31:10;92964.28;;;5.80;100.00
10718;BME280;13513;42.700;23.124;2023-04-10T01:33:46;92962.27;;;5.82;100.00
10718;BME280;13513;42.700;23.124;2023-04-10T01:36:21;92960.70;;;5.65;100.00
10718;BME280;13513;42.700;23.124;2023-04-10T01:38:58;92962.36;;;5.69;100.00
10718;BME280;13513;42.700;23.124;2023-04-10T01:41:34;92963.61;;;5.75;100.00
10718;BME280;13513;42.700;23.124;2023-04-10T01:44:04;92959.18;;;5.76;100.00
10718;BME280;13513;42.700;23.124;2023-04-10T01:46:36;92957.97;;;5.87;100.00
10718;BME280;13513;42.700;23.124;2023-04-10T01:49:09;92963.32;;;5.90;100.00
10718;BME280;13513;42.700;23.124;2023-04-10T01:51:41;92960.23;;;5.93;100.00
10718;BME280;13513;42.700;23.124;2023-04-10T01:54:13;92949.61;;;5.97;100.00
10718;BME280;13513;42.700;23.124;2023-04-10T01:56:44;92944.95;;;6.08;100.00
10718;BME280;13513;42.700;23.124;2023-04-10T01:59:15;92944.95;;;6.08;100.00
10718;BME280;13513;42.700;23.124;2023-04-10T02:01:47;92947.80;;;6.06;100.00
10718;BME280;13513;42.700;23.124;2023-04-10T02:04:17;92957.99;;;6.14;100.00
10718;BME280;13513;42.700;23.124;2023-04-10T02:06:50;92953.36;;;6.07;100.00
10718;BME280;13513;42.700;23.124;2023-04-10T02:12:21;92948.44;;;5.93;100.00
10718;BME280;13513;42.700;23.124;2023-04-10T02:14:50;92950.21;;;5.99;100.00
10718;BME280;13513;42.700;23.124;2023-04-10T02:17:24;92946.91;;;5.94;100.00
10718;BME280;13513;42.700;23.124;2023-04-10T02:19:54;92948.97;;;6.01;100.00
10718;BME280;13513;42.700;23.124;2023-04-10T02:22:25;92948.97;;;6.01;100.00
10718;BME280;13513;42.700;23.124;2023-04-10T02:24:57;92943.94;;;6.00;100.00
10718;BME280;13513;42.700;23.124;2023-04-10T02:27:34;92937.45;;;6.02;100.00
10718;BME280;13513;42.700;23.124;2023-04-10T02:30:01;92937.45;;;6.02;100.00
10718;BME280;13513;42.700;23.124;2023-04-10T02:32:32;92934.91;;;5.96;100.00
10718;BME280;13513;42.700;23.124;2023-04-10T02:35:03;92937.30;;;6.06;100.00
10718;BME280;13513;42.700;23.124;2023-04-10T02:37:33;92934.53;;;6.10;100.00
10718;BME280;13513;42.700;23.124;2023-04-10T02:40:05;92928.06;;;5.95;100.00
10718;BME280;13513;42.700;23.124;2023-04-10T02:42:37;92928.06;;;5.95;100.00
10718;BME280;13513;42.700;23.124;2023-04-10T02:45:11;92924.84;;;5.93;100.00
10718;BME280;13513;42.700;23.124;2023-04-10T02:47:42;92929.03;;;5.76;100.00
10718;BME280;13513;42.700;23.124;2023-04-10T02:50:13;92928.66;;;5.72;100.00
10718;BME280;13513;42.700;23.124;2023-04-10T02:52:43;92918.27;;;5.75;100.00
10718;BME280;13513;42.700;23.124;2023-04-10T02:55:14;92923.55;;;5.59;100.00
10718;BME280;13513;42.700;23.124;2023-04-10T02:57:44;92918.09;;;5.61;100.00
10718;BME280;13513;42.700;23.124;2023-04-10T03:00:16;92919.33;;;5.58;100.00
10718;BME280;13513;42.700;23.124;2023-04-10T03:02:49;92917.70;;;5.48;100.00
10718;BME280;13513;42.700;23.124;2023-04-10T03:05:20;92917.63;;;5.46;100.00
10718;BME280;13513;42.700;23.124;2023-04-10T03:07:51;92926.65;;;5.41;100.00
10718;BME280;13513;42.700;23.124;2023-04-10T03:10:22;92919.28;;;5.31;100.00
10718;BME280;13513;42.700;23.124;2023-04-10T03:12:52;92915.63;;;5.23;100.00
10718;BME280;13513;42.700;23.124;2023-04-10T03:15:24;92912.53;;;5.17;100.00
10718;BME280;13513;42.700;23.124;2023-04-10T03:17:54;92917.67;;;5.06;100.00
10718;BME280;13513;42.700;23.124;2023-04-10T03:20:25;92922.91;;;4.90;100.00
10718;BME280;13513;42.700;23.124;2023-04-10T03:22:56;92926.20;;;4.95;100.00
10718;BME280;13513;42.700;23.124;2023-04-10T03:25:26;92922.12;;;4.74;100.00
10718;BME280;13513;42.700;23.124;2023-04-10T03:27:57;92922.73;;;4.70;100.00
10718;BME280;13513;42.700;23.124;2023-04-10T03:30:27;92923.44;;;4.90;100.00
10718;BME280;13513;42.700;23.124;2023-04-10T03:32:58;92925.40;;;4.94;100.00
10718;BME280;13513;42.700;23.124;2023-04-10T03:35:29;92925.38;;;4.85;100.00
10718;BME280;13513;42.700;23.124;2023-04-10T03:38:00;92926.80;;;4.81;100.00
10718;BME280;13513;42.700;23.124;2023-04-10T03:40:31;92926.85;;;4.75;100.00
10718;BME280;13513;42.700;23.124;2023-04-10T03:43:02;92925.23;;;4.74;100.00
10718;BME280;13513;42.700;23.124;2023-04-10T03:45:32;92934.18;;;4.75;100.00
10718;BME280;13513;42.700;23.124;2023-04-10T03:48:02;92936.03;;;4.68;100.00
10718;BME280;13513;42.700;23.124;2023-04-10T03:50:32;92939.69;;;4.83;100.00
10718;BME280;13513;42.700;23.124;2023-04-10T03:53:03;92940.09;;;4.80;100.00
10718;BME280;13513;42.700;23.124;2023-04-10T03:55:33;92939.16;;;4.83;100.00
10718;BME280;13513;42.700;23.124;2023-04-10T03:58:05;92937.84;;;4.83;100.00
10718;BME280;13513;42.700;23.124;2023-04-10T04:00:36;92941.33;;;4.77;100.00
10718;BME280;13513;42.700;23.124;2023-04-10T04:03:07;92948.28;;;4.74;100.00
10718;BME280;13513;42.700;23.124;2023-04-10T04:05:38;92946.33;;;4.63;100.00
10718;BME280;13513;42.700;23.124;2023-04-10T04:08:09;92947.47;;;4.74;100.00
10718;BME280;13513;42.700;23.124;2023-04-10T04:10:39;92950.98;;;4.77;100.00
10718;BME280;13513;42.700;23.124;2023-04-10T04:13:10;92948.58;;;4.60;100.00
10718;BME280;13513;42.700;23.124;2023-04-10T04:15:43;92948.45;;;4.64;100.00
10718;BME280;13513;42.700;23.124;2023-04-10T04:18:19;92955.88;;;4.82;100.00
10718;BME280;13513;42.700;23.124;2023-04-10T04:20:51;92955.39;;;4.83;100.00
10718;BME280;13513;42.700;23.124;2023-04-10T04:23:22;92953.44;;;5.03;100.00
10718;BME280;13513;42.700;23.124;2023-04-10T04:25:53;92959.67;;;5.17;100.00
10718;BME280;13513;42.700;23.124;2023-04-10T04:28:24;92959.48;;;5.28;100.00
10718;BME280;13513;42.700;23.124;2023-04-10T04:30:55;92961.73;;;5.40;100.00
10718;BME280;13513;42.700;23.124;2023-04-10T04:33:26;92963.12;;;5.51;100.00
10718;BME280;13513;42.700;23.124;2023-04-10T04:35:57;92960.63;;;5.72;100.00
10718;BME280;13513;42.700;23.124;2023-04-10T04:38:27;92959.25;;;5.78;100.00
10718;BME280;13513;42.700;23.124;2023-04-10T04:40:59;92959.53;;;5.95;100.00
10718;BME280;13513;42.700;23.124;2023-04-10T04:43:29;92961.64;;;6.13;100.00
10718;BME280;13513;42.700;23.124;2023-04-10T04:46:00;92969.14;;;6.28;100.00
10718;BME280;13513;42.700;23.124;2023-04-10T04:48:32;92963.70;;;6.38;100.00
10718;BME280;13513;42.700;23.124;2023-04-10T04:51:05;92970.75;;;6.56;100.00
10718;BME280;13513;42.700;23.124;2023-04-10T04:53:34;92969.26;;;6.69;100.00
10718;BME280;13513;42.700;23.124;2023-04-10T04:56:07;92973.33;;;6.83;100.00
10718;BME280;13513;42.700;23.124;2023-04-10T04:58:38;92970.41;;;7.02;100.00
10718;BME280;13513;42.700;23.124;2023-04-10T05:01:08;92969.72;;;7.16;100.00
10718;BME280;13513;42.700;23.124;2023-04-10T05:03:39;92974.25;;;7.38;100.00
10718;BME280;13513;42.700;23.124;2023-04-10T05:06:12;92970.81;;;7.49;100.00
10718;BME280;13513;42.700;23.124;2023-04-10T05:08:44;92971.55;;;7.68;100.00
10718;BME280;13513;42.700;23.124;2023-04-10T05:11:13;92976.53;;;8.01;100.00
10718;BME280;13513;42.700;23.124;2023-04-10T05:13:45;92977.41;;;8.28;100.00
10718;BME280;13513;42.700;23.124;2023-04-10T05:16:15;92981.37;;;8.18;100.00
10718;BME280;13513;42.700;23.124;2023-04-10T05:18:46;92977.33;;;8.48;100.00
10718;BME280;13513;42.700;23.124;2023-04-10T05:21:17;92978.63;;;8.88;100.00
10718;BME280;13513;42.700;23.124;2023-04-10T05:23:48;92980.77;;;9.02;100.00
10718;BME280;13513;42.700;23.124;2023-04-10T05:26:19;92988.81;;;9.10;100.00
10718;BME280;13513;42.700;23.124;2023-04-10T05:28:49;92991.89;;;9.35;100.00
10718;BME280;13513;42.700;23.124;2023-04-10T05:31:20;92989.59;;;9.52;100.00
10718;BME280;13513;42.700;23.124;2023-04-10T05:33:51;92983.17;;;9.95;100.00
10718;BME280;13513;42.700;23.124;2023-04-10T05:36:22;92980.84;;;10.32;98.39
10718;BME280;13513;42.700;23.124;2023-04-10T05:38:54;92983.94;;;10.64;98.30
10718;BME280;13513;42.700;23.124;2023-04-10T05:41:25;92982.92;;;11.13;91.48
10718;BME280;13513;42.700;23.124;2023-04-10T05:43:56;92985.89;;;11.43;88.98
10718;BME280;13513;42.700;23.124;2023-04-10T05:46:27;92984.57;;;11.43;84.06
10718;BME280;13513;42.700;23.124;2023-04-10T05:48:58;92989.88;;;11.19;84.58
10718;BME280;13513;42.700;23.124;2023-04-10T05:51:28;92987.38;;;11.32;84.25
10718;BME280;13513;42.700;23.124;2023-04-10T05:53:59;92985.78;;;11.57;82.43
10718;BME280;13513;42.700;23.124;2023-04-10T05:56:29;92989.37;;;11.46;81.14
10718;BME280;13513;42.700;23.124;2023-04-10T05:59:00;92987.88;;;11.79;80.33
10718;BME280;13513;42.700;23.124;2023-04-10T06:01:31;92988.76;;;11.90;82.15
10718;BME280;13513;42.700;23.124;2023-04-10T06:04:02;92985.53;;;12.17;82.36
10718;BME280;13513;42.700;23.124;2023-04-10T06:06:34;92982.41;;;12.69;76.10
10718;BME280;13513;42.700;23.124;2023-04-10T06:09:05;92984.48;;;13.06;74.28
10718;BME280;13513;42.700;23.124;2023-04-10T06:11:35;92991.61;;;13.01;71.80
10718;BME280;13513;42.700;23.124;2023-04-10T06:14:05;92984.31;;;12.81;74.10
10718;BME280;13513;42.700;23.124;2023-04-10T06:16:35;92985.95;;;12.90;69.81
10718;BME280;13513;42.700;23.124;2023-04-10T06:19:07;92982.89;;;13.05;72.90
10718;BME280;13513;42.700;23.124;2023-04-10T06:21:38;92983.25;;;12.80;68.97
10718;BME280;13513;42.700;23.124;2023-04-10T06:24:10;92983.73;;;12.25;76.13
10718;BME280;13513;42.700;23.124;2023-04-10T06:26:41;92983.24;;;12.31;73.95
10718;BME280;13513;42.700;23.124;2023-04-10T06:29:12;92983.25;;;12.33;73.27
10718;BME280;13513;42.700;23.124;2023-04-10T06:31:44;92980.33;;;11.66;77.64
10718;BME280;13513;42.700;23.124;2023-04-10T06:34:14;92985.22;;;11.29;81.53
10718;BME280;13513;42.700;23.124;2023-04-10T06:36:45;92978.41;;;10.87;82.28
10718;BME280;13513;42.700;23.124;2023-04-10T06:39:16;92977.19;;;10.54;84.27
10718;BME280;13513;42.700;23.124;2023-04-10T06:41:47;92980.23;;;10.08;90.40
10718;BME280;13513;42.700;23.124;2023-04-10T06:44:18;92975.25;;;9.79;93.88
10718;BME280;13513;42.700;23.124;2023-04-10T06:46:49;92988.05;;;9.87;94.21
10718;BME280;13513;42.700;23.124;2023-04-10T06:49:22;92983.38;;;9.91;91.76
10718;BME280;13513;42.700;23.124;2023-04-10T06:51:53;92986.86;;;10.11;90.04
10718;BME280;13513;42.700;23.124;2023-04-10T06:54:24;92982.08;;;10.46;93.23
10718;BME280;13513;42.700;23.124;2023-04-10T06:56:54;92990.13;;;11.18;87.23
10718;BME280;13513;42.700;23.124;2023-04-10T06:59:26;92986.28;;;11.28;84.16
10718;BME280;13513;42.700;23.124;2023-04-10T07:01:57;92982.11;;;11.34;82.78
10718;BME280;13513;42.700;23.124;2023-04-10T07:04:28;92983.07;;;11.02;85.62
10718;BME280;13513;42.700;23.124;2023-04-10T07:06:59;92982.47;;;10.35;87.02
10718;BME280;13513;42.700;23.124;2023-04-10T07:09:30;92991.19;;;10.17;90.38
10718;BME280;13513;42.700;23.124;2023-04-10T07:12:01;92987.48;;;9.68;94.88
10718;BME280;13513;42.700;23.124;2023-04-10T07:14:33;92993.55;;;9.38;95.27
10718;BME280;13513;42.700;23.124;2023-04-10T07:17:04;92986.84;;;8.89;98.91
10718;BME280;13513;42.700;23.124;2023-04-10T07:19:34;92986.30;;;8.89;100.00
10718;BME280;13513;42.700;23.124;2023-04-10T07:22:04;92989.02;;;9.20;100.00
10718;BME280;13513;42.700;23.124;2023-04-10T07:24:35;92979.13;;;9.13;100.00
10718;BME280;13513;42.700;23.124;2023-04-10T07:27:07;92978.89;;;9.14;100.00
10718;BME280;13513;42.700;23.124;2023-04-10T07:29:38;92980.48;;;8.87;100.00
10718;BME280;13513;42.700;23.124;2023-04-10T07:32:09;92983.30;;;9.11;99.68
10718;BME280;13513;42.700;23.124;2023-04-10T07:34:41;92983.15;;;9.04;95.91
10718;BME280;13513;42.700;23.124;2023-04-10T07:37:12;92991.16;;;8.95;93.86
10718;BME280;13513;42.700;23.124;2023-04-10T07:39:43;92985.52;;;8.89;96.52
10718;BME280;13513;42.700;23.124;2023-04-10T07:42:14;92992.05;;;9.00;95.74
10718;BME280;13513;42.700;23.124;2023-04-10T07:44:45;92987.72;;;8.80;96.12
10718;BME280;13513;42.700;23.124;2023-04-10T07:47:18;92991.98;;;8.70;96.43
10718;BME280;13513;42.700;23.124;2023-04-10T07:49:51;92986.63;;;8.79;97.18
10718;BME280;13513;42.700;23.124;2023-04-10T07:52:22;92988.86;;;8.73;96.11
10718;BME280;13513;42.700;23.124;2023-04-10T07:54:53;92987.17;;;8.81;96.07
10718;BME280;13513;42.700;23.124;2023-04-10T07:57:23;92983.77;;;8.80;97.06
10718;BME280;13513;42.700;23.124;2023-04-10T07:59:56;92987.63;;;8.89;95.26
10718;BME280;13513;42.700;23.124;2023-04-10T08:02:27;92986.07;;;8.91;96.40
10718;BME280;13513;42.700;23.124;2023-04-10T08:04:58;92986.77;;;9.28;92.47
10718;BME280;13513;42.700;23.124;2023-04-10T08:07:30;92992.16;;;9.64;91.42
10718;BME280;13513;42.700;23.124;2023-04-10T08:10:01;92983.56;;;9.71;91.79
10718;BME280;13513;42.700;23.124;2023-04-10T08:12:34;92980.69;;;9.72;90.87
10718;BME280;13513;42.700;23.124;2023-04-10T08:15:07;92983.71;;;10.11;91.54
10718;BME280;13513;42.700;23.124;2023-04-10T08:17:37;92978.63;;;10.43;88.09
10718;BME280;13513;42.700;23.124;2023-04-10T08:20:10;92974.95;;;10.65;87.12
10718;BME280;13513;42.700;23.124;2023-04-10T08:22:41;92975.31;;;10.93;85.08
10718;BME280;13513;42.700;23.124;2023-04-10T08:25:12;92977.14;;;10.92;83.71
10718;BME280;13513;42.700;23.124;2023-04-10T08:27:43;92976.31;;;11.13;80.69
10718;BME280;13513;42.700;23.124;2023-04-10T08:30:14;92977.92;;;11.38;78.21
10718;BME280;13513;42.700;23.124;2023-04-10T08:32:45;92980.09;;;11.44;74.62
10718;BME280;13513;42.700;23.124;2023-04-10T08:35:16;92976.48;;;11.79;76.09
10718;BME280;13513;42.700;23.124;2023-04-10T08:37:48;92978.16;;;11.10;75.40
10718;BME280;13513;42.700;23.124;2023-04-10T08:40:19;92976.70;;;11.00;72.77
10718;BME280;13513;42.700;23.124;2023-04-10T08:42:50;92966.33;;;10.94;75.71
10718;BME280;13513;42.700;23.124;2023-04-10T08:45:21;92959.41;;;11.65;72.82
10718;BME280;13513;42.700;23.124;2023-04-10T08:47:52;92961.48;;;11.36;69.62
10718;BME280;13513;42.700;23.124;2023-04-10T08:50:27;92964.73;;;11.43;70.14
10718;BME280;13513;42.700;23.124;2023-04-10T08:52:59;92957.87;;;11.45;70.95
10718;BME280;13513;42.700;23.124;2023-04-10T08:55:31;92964.95;;;11.13;68.59
10718;BME280;13513;42.700;23.124;2023-04-10T08:58:02;92960.37;;;10.60;71.98
10718;BME280;13513;42.700;23.124;2023-04-10T09:00:34;92967.45;;;10.19;72.71
10718;BME280;13513;42.700;23.124;2023-04-10T09:03:10;92960.61;;;9.88;75.17
10718;BME280;13513;42.700;23.124;2023-04-10T09:05:42;92965.78;;;9.97;78.09
10718;BME280;13513;42.700;23.124;2023-04-10T09:08:14;92960.09;;;9.88;76.79
10718;BME280;13513;42.700;23.124;2023-04-10T09:10:48;92961.86;;;9.83;74.12
10718;BME280;13513;42.700;23.124;2023-04-10T09:13:39;92962.73;;;9.72;74.80
10718;BME280;13513;42.700;23.124;2023-04-10T09:16:07;92959.26;;;9.85;75.09
10718;BME280;13513;42.700;23.124;2023-04-10T09:18:52;92977.75;;;9.71;75.38
10718;BME280;13513;42.700;23.124;2023-04-10T09:21:22;92957.22;;;9.73;76.19
10718;BME280;13513;42.700;23.124;2023-04-10T09:23:59;92957.10;;;10.15;70.53
10718;BME280;13513;42.700;23.124;2023-04-10T09:26:31;92945.02;;;10.38;73.84
10718;BME280;13513;42.700;23.124;2023-04-10T09:29:06;92943.44;;;10.59;69.34
10718;BME280;13513;42.700;23.124;2023-04-10T09:31:38;92942.56;;;10.32;68.91
10718;BME280;13513;42.700;23.124;2023-04-10T09:34:18;92942.87;;;9.83;70.58
10718;BME280;13513;42.700;23.124;2023-04-10T09:36:58;92943.92;;;9.66;73.71
10718;BME280;13513;42.700;23.124;2023-04-10T09:39:37;92952.69;;;9.71;72.82
10718;BME280;13513;42.700;23.124;2023-04-10T09:42:08;92951.05;;;9.51;75.19
10718;BME280;13513;42.700;23.124;2023-04-10T09:44:42;92957.49;;;9.41;77.52
10718;BME280;13513;42.700;23.124;2023-04-10T09:47:21;92955.83;;;9.38;77.68
10718;BME280;13513;42.700;23.124;2023-04-10T09:49:56;92951.25;;;9.47;78.73
10718;BME280;13513;42.700;23.124;2023-04-10T09:52:28;92949.84;;;9.56;78.58
10718;BME280;13513;42.700;23.124;2023-04-10T09:55:04;92950.12;;;9.74;77.92
10718;BME280;13513;42.700;23.124;2023-04-10T09:57:35;92947.09;;;10.36;76.52
10718;BME280;13513;42.700;23.124;2023-04-10T10:00:08;92946.42;;;10.46;70.65
10718;BME280;13513;42.700;23.124;2023-04-10T10:02:40;92942.59;;;10.34;73.54
10718;BME280;13513;42.700;23.124;2023-04-10T10:05:11;92941.98;;;10.30;76.04
10718;BME280;13513;42.700;23.124;2023-04-10T10:07:43;92940.84;;;10.42;71.96
10718;BME280;13513;42.700;23.124;2023-04-10T10:10:14;92944.39;;;10.31;72.98
10718;BME280;13513;42.700;23.124;2023-04-10T10:12:49;92944.35;;;10.10;70.88
10718;BME280;13513;42.700;23.124;2023-04-10T10:15:34;92946.13;;;9.90;73.34
10718;BME280;13513;42.700;23.124;2023-04-10T10:18:21;92941.09;;;9.70;75.69
10718;BME280;13513;42.700;23.124;2023-04-10T10:20:53;92944.91;;;9.79;80.51
10718;BME280;13513;42.700;23.124;2023-04-10T10:23:25;92951.78;;;9.80;83.21
10718;BME280;13513;42.700;23.124;2023-04-10T10:25:57;92942.03;;;9.80;80.68
10718;BME280;13513;42.700;23.124;2023-04-10T10:28:29;92949.64;;;9.60;79.20
10718;BME280;13513;42.700;23.124;2023-04-10T10:31:01;92938.98;;;9.55;79.16
10718;BME280;13513;42.700;23.124;2023-04-10T10:33:35;92938.88;;;9.64;78.56
10718;BME280;13513;42.700;23.124;2023-04-10T10:36:07;92937.80;;;9.79;79.27
10718;BME280;13513;42.700;23.124;2023-04-10T10:38:40;92930.25;;;10.04;80.32
10718;BME280;13513;42.700;23.124;2023-04-10T10:41:22;92925.93;;;10.34;75.95
10718;BME280;13513;42.700;23.124;2023-04-10T10:46:37;92920.90;;;10.54;74.20
10718;BME280;13513;42.700;23.124;2023-04-10T10:49:05;92915.80;;;10.69;72.28
10718;BME280;13513;42.700;23.124;2023-04-10T10:51:49;92918.44;;;10.69;76.24
10718;BME280;13513;42.700;23.124;2023-04-10T10:54:33;92912.70;;;10.74;73.03
10718;BME280;13513;42.700;23.124;2023-04-10T10:57:05;92906.22;;;10.84;69.24
10718;BME280;13513;42.700;23.124;2023-04-10T10:59:54;92901.17;;;10.83;71.88
10718;BME280;13513;42.700;23.124;2023-04-10T11:02:23;92899.63;;;11.40;71.49
10718;BME280;13513;42.700;23.124;2023-04-10T11:04:54;92898.09;;;11.46;63.17
10718;BME280;13513;42.700;23.124;2023-04-10T11:09:57;92895.48;;;11.78;64.37
10718;BME280;13513;42.700;23.124;2023-04-10T11:12:28;92891.89;;;11.96;62.25
10718;BME280;13513;42.700;23.124;2023-04-10T11:15:01;92880.27;;;12.02;61.98
10718;BME280;13513;42.700;23.124;2023-04-10T11:17:51;92883.30;;;12.18;61.02
10718;BME280;13513;42.700;23.124;2023-04-10T11:20:21;92884.06;;;12.14;60.08
10718;BME280;13513;42.700;23.124;2023-04-10T11:23:13;92881.17;;;11.76;60.68
10718;BME280;13513;42.700;23.124;2023-04-10T11:25:52;92885.91;;;11.74;63.53
10718;BME280;13513;42.700;23.124;2023-04-10T11:28:41;92883.01;;;11.76;62.38
10718;BME280;13513;42.700;23.124;2023-04-10T11:31:22;92880.71;;;11.58;57.86
10718;BME280;13513;42.700;23.124;2023-04-10T11:34:08;92884.34;;;11.18;59.48
10718;BME280;13513;42.700;23.124;2023-04-10T11:36:42;92869.84;;;11.54;63.97
10718;BME280;13513;42.700;23.124;2023-04-10T11:39:15;92867.80;;;11.95;58.84
10718;BME280;13513;42.700;23.124;2023-04-10T11:41:50;92868.28;;;11.87;58.85
10718;BME280;13513;42.700;23.124;2023-04-10T11:44:29;92880.09;;;11.75;60.04
10718;BME280;13513;42.700;23.124;2023-04-10T11:47:01;92881.39;;;11.43;61.16
10718;BME280;13513;42.700;23.124;2023-04-10T11:49:32;92883.27;;;11.43;60.16
10718;BME280;13513;42.700;23.124;2023-04-10T11:52:05;92879.51;;;11.68;63.92
10718;BME280;13513;42.700;23.124;2023-04-10T11:54:35;92873.36;;;11.96;63.39
10718;BME280;13513;42.700;23.124;2023-04-10T11:57:07;92873.61;;;11.95;62.84
10718;BME280;13513;42.700;23.124;2023-04-10T11:59:38;92872.71;;;12.21;62.29
10718;BME280;13513;42.700;23.124;2023-04-10T12:02:12;92868.95;;;12.69;63.41
10718;BME280;13513;42.700;23.124;2023-04-10T12:04:43;92863.78;;;13.01;55.81
10718;BME280;13513;42.700;23.124;2023-04-10T12:07:15;92858.63;;;12.75;54.44
10718;BME280;13513;42.700;23.124;2023-04-10T12:09:45;92855.98;;;12.13;58.01
10718;BME280;13513;42.700;23.124;2023-04-10T12:12:17;92859.08;;;12.02;56.84
10718;BME280;13513;42.700;23.124;2023-04-10T12:14:48;92856.87;;;11.53;59.66
10718;BME280;13513;42.700;23.124;2023-04-10T12:17:19;92848.58;;;11.71;59.54
10718;BME280;13513;42.700;23.124;2023-04-10T12:19:50;92844.45;;;11.87;58.81
10718;BME280;13513;42.700;23.124;2023-04-10T12:22:21;92852.94;;;11.94;58.42
10718;BME280;13513;42.700;23.124;2023-04-10T12:24:52;92855.55;;;11.84;57.69
10718;BME280;13513;42.700;23.124;2023-04-10T12:27:27;92850.67;;;11.71;57.57
10718;BME280;13513;42.700;23.124;2023-04-10T12:29:57;92852.03;;;11.42;60.41
10718;BME280;13513;42.700;23.124;2023-04-10T12:32:28;92841.52;;;11.18;63.84
10718;BME280;13513;42.700;23.124;2023-04-10T12:34:58;92850.91;;;10.78;65.38
10718;BME280;13513;42.700;23.124;2023-04-10T12:37:47;92854.05;;;10.51;68.62
10718;BME280;13513;42.700;23.124;2023-04-10T12:40:18;92853.92;;;10.41;74.48
10718;BME280;13513;42.700;23.124;2023-04-10T12:42:49;92854.57;;;9.72;82.60
10718;BME280;13513;42.700;23.124;2023-04-10T12:45:19;92854.97;;;9.12;94.85
10718;BME280;13513;42.700;23.124;2023-04-10T12:47:50;92857.76;;;8.47;100.00
10718;BME280;13513;42.700;23.124;2023-04-10T12:50:22;92859.15;;;8.23;100.00
10718;BME280;13513;42.700;23.124;2023-04-10T12:53:04;92867.66;;;7.91;100.00
10718;BME280;13513;42.700;23.124;2023-04-10T12:55:35;92867.05;;;7.75;100.00
10718;BME280;13513;42.700;23.124;2023-04-10T12:58:21;92860.13;;;7.71;100.00
10718;BME280;13513;42.700;23.124;2023-04-10T13:00:52;92863.30;;;7.48;100.00
10718;BME280;13513;42.700;23.124;2023-04-10T13:03:23;92888.36;;;7.30;100.00
10718;BME280;13513;42.700;23.124;2023-04-10T13:05:54;92878.88;;;6.56;100.00
10718;BME280;13513;42.700;23.124;2023-04-10T13:08:27;92886.66;;;6.24;100.00
10718;BME280;13513;42.700;23.124;2023-04-10T13:10:58;92896.38;;;6.05;100.00
10718;BME280;13513;42.700;23.124;2023-04-10T13:13:31;92907.38;;;5.96;100.00
10718;BME280;13513;42.700;23.124;2023-04-10T13:16:04;92884.07;;;5.88;100.00
10718;BME280;13513;42.700;23.124;2023-04-10T13:18:35;92880.07;;;5.85;100.00
10718;BME280;13513;42.700;23.124;2023-04-10T13:21:06;92876.79;;;5.99;100.00
10718;BME280;13513;42.700;23.124;2023-04-10T13:23:37;92861.72;;;6.03;100.00
10718;BME280;13513;42.700;23.124;2023-04-10T13:26:08;92847.02;;;6.23;100.00
10718;BME280;13513;42.700;23.124;2023-04-10T13:28:39;92844.39;;;6.52;100.00
10718;BME280;13513;42.700;23.124;2023-04-10T13:31:10;92845.53;;;6.65;100.00
10718;BME280;13513;42.700;23.124;2023-04-10T13:33:49;92832.91;;;6.85;100.00
10718;BME280;13513;42.700;23.124;2023-04-10T13:36:11;92829.55;;;7.10;100.00
10718;BME280;13513;42.700;23.124;2023-04-10T13:38:42;92837.49;;;7.01;100.00
10718;BME280;13513;42.700;23.124;2023-04-10T13:41:13;92833.69;;;7.18;100.00